createdAt,value
2022-09-12T00:04:57.200Z,0.00
2022-09-12T00:09:57.240Z,0.00
2022-09-12T00:14:57.050Z,0.00
2022-09-12T00:19:57.006Z,0.00
2022-09-12T00:24:57.118Z,0.00
2022-09-12T00:29:57.045Z,0.00
2022-09-12T00:34:56.981Z,0.00
2022-09-12T00:39:56.875Z,0.00
2022-09-12T00:44:56.646Z,0.00
2022-09-12T00:49:59.690Z,0.00
2022-09-12T00:54:56.570Z,0.00
2022-09-12T01:00:04.968Z,0.00
2022-09-12T01:08:14.551Z,0.00
2022-09-12T01:13:14.197Z,0.00
2022-09-12T01:18:14.892Z,0.00
2022-09-12T01:23:14.186Z,0.00
2022-09-12T01:29:32.610Z,0.00
2022-09-12T01:36:28.440Z,0.00
2022-09-12T01:41:38.435Z,0.00
2022-09-12T01:46:28.194Z,0.00
2022-09-12T01:51:28.149Z,0.00
2022-09-12T01:56:27.915Z,0.00
2022-09-12T02:01:28.114Z,0.00
2022-09-12T02:06:27.940Z,0.00
2022-09-12T02:11:27.790Z,0.00
2022-09-12T02:16:27.774Z,0.00
2022-09-12T02:21:27.868Z,0.00
2022-09-12T02:26:30.725Z,0.00
2022-09-12T02:31:27.712Z,0.00
2022-09-12T02:36:27.535Z,0.00
2022-09-12T02:41:27.425Z,0.00
2022-09-12T02:46:27.725Z,0.00
2022-09-12T02:51:27.285Z,0.00
2022-09-12T02:56:27.450Z,0.00
2022-09-12T03:01:27.266Z,0.00
2022-09-12T03:06:27.170Z,0.00
2022-09-12T03:11:27.099Z,0.00
2022-09-12T03:16:27.119Z,0.00
2022-09-12T03:21:26.769Z,0.00
2022-09-12T03:28:02.800Z,0.00
2022-09-12T03:34:28.380Z,0.00
2022-09-12T03:39:28.115Z,0.00
2022-09-12T03:44:28.125Z,0.00
2022-09-12T03:49:28.210Z,0.00
2022-09-12T03:56:13.410Z,0.00
2022-09-12T04:01:13.462Z,0.00
2022-09-12T04:06:13.370Z,0.00
2022-09-12T04:11:13.205Z,0.00
2022-09-12T04:16:13.313Z,0.00
2022-09-12T04:21:21.231Z,0.00
2022-09-12T04:26:13.010Z,0.00
2022-09-12T04:31:13.976Z,0.00
2022-09-12T04:36:12.886Z,0.00
2022-09-12T04:41:12.916Z,0.00
2022-09-12T04:46:15.967Z,5.62
2022-09-12T04:51:12.645Z,11.25
2022-09-12T04:56:12.897Z,11.25
2022-09-12T05:30:09.522Z,67.50
2022-09-12T05:56:29.176Z,112.50
2022-09-12T06:01:29.070Z,129.38
2022-09-12T06:06:28.800Z,135.00
2022-09-12T06:13:09.107Z,174.38
2022-09-12T06:18:08.939Z,196.88
2022-09-12T06:23:08.593Z,174.38
2022-09-12T06:28:08.615Z,196.88
2022-09-12T06:33:08.455Z,236.25
2022-09-12T06:38:08.751Z,230.62
2022-09-12T06:43:08.470Z,236.25
2022-09-12T06:48:08.511Z,247.50
2022-09-12T06:53:09.061Z,247.50
2022-09-12T06:58:08.581Z,270.00
2022-09-12T07:03:11.859Z,281.25
2022-09-12T07:08:07.960Z,298.12
2022-09-12T07:13:07.962Z,337.50
2022-09-12T07:18:08.079Z,388.12
2022-09-12T08:06:22.813Z,630.00
2022-09-12T08:22:10.191Z,669.38
2022-09-12T08:31:08.824Z,742.50
2022-09-12T08:37:59.656Z,821.25
2022-09-12T08:45:32.335Z,877.50
2022-09-12T08:51:50.851Z,843.75
2022-09-12T08:56:59.266Z,759.38
2022-09-12T09:01:50.545Z,607.50
2022-09-12T09:08:15.762Z,540.00
2022-09-12T09:13:14.157Z,455.62
2022-09-12T09:18:14.031Z,326.25
2022-09-12T09:24:58.082Z,309.38
2022-09-12T09:29:58.259Z,303.75
2022-09-12T09:34:57.860Z,298.12
2022-09-12T09:39:57.749Z,298.12
2022-09-12T09:44:57.802Z,292.50
2022-09-12T09:49:57.664Z,303.75
2022-09-12T09:54:57.548Z,309.38
2022-09-12T09:59:57.780Z,303.75
2022-09-12T10:05:04.890Z,298.12
2022-09-12T10:09:57.488Z,298.12
2022-09-12T10:15:01.407Z,292.50
2022-09-12T10:20:17.320Z,286.88
2022-09-12T10:24:58.167Z,286.88
2022-09-12T10:29:57.041Z,281.25
2022-09-12T10:34:57.042Z,281.25
2022-09-12T10:39:57.391Z,270.00
2022-09-12T10:44:56.952Z,270.00
2022-09-12T10:49:56.905Z,275.62
2022-09-12T10:54:56.810Z,275.62
2022-09-12T10:59:56.697Z,281.25
2022-09-12T11:04:56.640Z,286.88
2022-09-12T11:09:56.505Z,298.12
2022-09-12T11:14:59.493Z,303.75
2022-09-12T11:19:56.542Z,309.38
2022-09-12T11:24:57.140Z,326.25
2022-09-12T11:29:56.243Z,337.50
2022-09-12T11:34:56.358Z,348.75
2022-09-12T11:39:56.267Z,354.38
2022-09-12T11:44:56.151Z,360.00
2022-09-12T11:49:56.141Z,365.62
2022-09-12T11:54:56.175Z,365.62
2022-09-12T11:59:55.920Z,360.00
2022-09-12T12:04:55.826Z,365.62
2022-09-12T12:09:55.928Z,371.25
2022-09-12T12:14:58.943Z,371.25
2022-09-12T12:19:55.633Z,371.25
2022-09-12T12:24:56.273Z,393.75
2022-09-12T12:29:55.450Z,410.62
2022-09-12T12:34:55.654Z,416.25
2022-09-12T12:39:55.490Z,455.62
2022-09-12T12:44:55.476Z,500.62
2022-09-12T12:50:02.783Z,545.62
2022-09-12T12:55:02.643Z,568.12
2022-09-12T12:59:55.291Z,585.00
2022-09-12T13:04:55.091Z,573.75
2022-09-12T13:09:54.982Z,579.38
2022-09-12T13:14:57.960Z,585.00
2022-09-12T13:20:16.852Z,596.25
2022-09-12T13:24:56.053Z,607.50
2022-09-12T13:29:54.675Z,618.75
2022-09-12T13:34:54.799Z,607.50
2022-09-12T13:39:54.760Z,601.88
2022-09-12T13:44:55.170Z,590.62
2022-09-12T13:49:54.569Z,590.62
2022-09-12T13:54:54.413Z,585.00
2022-09-12T14:00:02.143Z,573.75
2022-09-12T14:05:01.756Z,551.25
2022-09-12T14:10:02.058Z,523.12
2022-09-12T14:14:57.108Z,506.25
2022-09-12T14:19:54.167Z,489.38
2022-09-12T14:24:53.961Z,489.38
2022-09-12T14:29:54.195Z,489.38
2022-09-12T14:45:28.878Z,438.75
2022-09-12T14:50:28.859Z,421.88
2022-09-12T14:55:28.564Z,433.12
2022-09-12T15:00:28.599Z,427.50
2022-09-12T15:05:28.563Z,427.50
2022-09-12T15:10:28.479Z,405.00
2022-09-12T15:15:28.307Z,376.88
2022-09-12T15:20:28.225Z,354.38
2022-09-12T15:25:28.292Z,348.75
2022-09-12T15:30:28.070Z,320.62
2022-09-12T15:35:31.306Z,298.12
2022-09-12T15:40:27.928Z,309.38
2022-09-12T15:45:27.936Z,309.38
2022-09-12T15:50:27.908Z,309.38
2022-09-12T15:55:35.706Z,298.12
2022-09-12T16:00:27.684Z,281.25
2022-09-12T16:05:27.743Z,264.38
2022-09-12T16:10:27.532Z,258.75
2022-09-12T16:15:27.541Z,253.12
2022-09-12T16:20:27.373Z,241.88
2022-09-12T16:25:27.351Z,213.75
2022-09-12T16:30:27.259Z,185.62
2022-09-12T16:35:30.239Z,157.50
2022-09-12T16:40:27.168Z,129.38
2022-09-12T16:45:27.215Z,106.88
2022-09-12T16:50:26.999Z,84.38
2022-09-12T16:55:34.737Z,67.50
2022-09-12T17:00:26.970Z,56.25
2022-09-12T17:05:27.129Z,45.00
2022-09-12T17:10:26.779Z,33.75
2022-09-12T17:15:26.826Z,28.12
2022-09-12T17:20:26.638Z,22.50
2022-09-12T17:25:27.800Z,16.88
